Time;durP1;ratioP1;P1;durP2;ratioP2;P2;SDS_P1;SDS_P2;PMS_P1;PMS_P2;Temp;Humidity;BMP_temperature;BMP_pressure;BME280_temperature;BME280_humidity;BME280_pressure;Samples;Min_cycle;Max_cycle;Signal;HPM_P1;HPM_P2
2022/11/20 00:00:46;;;;;;;15.60;9.13;;;;;;;-0.82;100.00;101346.75;5019037;28;20060;-67
2022/11/20 00:03:13;;;;;;;17.35;9.20;;;;;;;-0.86;100.00;101349.50;5021940;28;20406;-67
2022/11/20 00:05:39;;;;;;;13.93;8.98;;;;;;;-0.92;100.00;101348.00;5013311;28;20060;-67
2022/11/20 00:08:05;;;;;;;15.45;9.05;;;;;;;-0.91;100.00;101352.25;5025653;28;20067;-67
2022/11/20 00:10:32;;;;;;;15.95;9.10;;;;;;;-0.95;100.00;101349.84;5020714;28;20053;-67
2022/11/20 00:12:58;;;;;;;13.77;8.85;;;;;;;-0.96;100.00;101348.16;5017779;28;20301;-67
2022/11/20 00:15:25;;;;;;;16.02;8.90;;;;;;;-0.98;100.00;101337.09;5015268;28;20049;-67
2022/11/20 00:17:51;;;;;;;16.95;9.45;;;;;;;-0.98;100.00;101331.94;5016900;28;20068;-67
2022/11/20 00:20:17;;;;;;;14.18;8.55;;;;;;;-1.00;100.00;101335.41;5027389;28;20045;-67
2022/11/20 00:22:44;;;;;;;17.50;8.75;;;;;;;-1.01;100.00;101325.16;5019443;28;20041;-67
2022/11/20 00:25:11;;;;;;;14.70;9.65;;;;;;;-1.06;100.00;101320.22;5025164;28;20087;-68
2022/11/20 00:27:37;;;;;;;16.35;10.05;;;;;;;-1.12;100.00;101319.59;5013066;28;20405;-67
2022/11/20 00:30:04;;;;;;;15.20;9.95;;;;;;;-1.13;100.00;101313.59;5019209;28;20045;-67
2022/11/20 00:32:31;;;;;;;17.85;9.13;;;;;;;-1.16;100.00;101318.03;5012360;28;20532;-67
2022/11/20 00:34:57;;;;;;;15.88;10.52;;;;;;;-1.15;100.00;101312.00;5025524;28;20521;-67
2022/11/20 00:37:23;;;;;;;17.08;9.13;;;;;;;-1.17;100.00;101314.63;5023842;28;20053;-67
2022/11/20 00:39:50;;;;;;;18.17;10.20;;;;;;;-1.17;100.00;101319.78;5020324;28;20060;-67
2022/11/20 00:42:16;;;;;;;16.77;10.10;;;;;;;-1.12;100.00;101324.75;5013855;28;20140;-67
2022/11/20 00:44:43;;;;;;;16.02;10.23;;;;;;;-1.14;100.00;101319.66;4998966;28;20053;-67
2022/11/20 00:47:09;;;;;;;18.30;10.23;;;;;;;-1.15;100.00;101330.03;5020455;28;20045;-67
2022/11/20 00:49:35;;;;;;;20.00;10.10;;;;;;;-1.17;100.00;101329.25;5019275;28;20049;-67
2022/11/20 00:52:02;;;;;;;17.10;9.48;;;;;;;-1.22;100.00;101325.09;5016357;28;20433;-67
2022/11/20 00:54:28;;;;;;;18.25;9.85;;;;;;;-1.24;100.00;101315.75;5020326;28;20049;-67
2022/11/20 00:56:55;;;;;;;16.10;9.60;;;;;;;-1.29;100.00;101315.09;5013543;28;20103;-67
2022/11/20 00:59:21;;;;;;;16.35;9.32;;;;;;;-1.25;100.00;101314.91;5015778;28;20531;-67
2022/11/20 01:01:48;;;;;;;16.85;9.75;;;;;;;-1.24;100.00;101315.75;5021341;28;20103;-67
2022/11/20 01:04:14;;;;;;;14.35;8.60;;;;;;;-1.25;100.00;101314.09;5013385;28;20249;-67
2022/11/20 01:06:41;;;;;;;15.23;9.05;;;;;;;-1.27;100.00;101328.75;5023572;28;20080;-67
2022/11/20 01:09:12;;;;;;;16.33;9.38;;;;;;;-1.24;100.00;101323.47;5013996;28;20037;-68
2022/11/20 01:11:42;;;;;;;17.95;9.93;;;;;;;-1.23;100.00;101327.75;5004781;28;20056;-67
2022/11/20 01:14:15;;;;;;;17.15;9.02;;;;;;;-1.26;100.00;101307.25;5017484;28;20056;-68
2022/11/20 01:16:45;;;;;;;15.90;9.10;;;;;;;-1.29;100.00;101313.38;5030916;28;20062;-68
2022/11/20 01:19:14;;;;;;;14.00;9.02;;;;;;;-1.35;100.00;101302.44;5017432;28;20065;-68
2022/11/20 01:21:45;;;;;;;14.00;8.32;;;;;;;-1.42;100.00;101309.56;4997582;28;20143;-69
2022/11/20 01:24:14;;;;;;;16.50;9.65;;;;;;;-1.43;100.00;101301.00;5018959;28;20512;-68
2022/11/20 01:26:42;;;;;;;15.13;9.05;;;;;;;-1.52;100.00;101296.22;5010193;28;20469;-68
2022/11/20 01:29:14;;;;;;;16.38;8.88;;;;;;;-1.48;100.00;101294.38;5024900;28;20041;-68
2022/11/20 01:31:41;;;;;;;15.15;9.20;;;;;;;-1.47;100.00;101296.03;5017892;28;20080;-68
2022/11/20 01:34:19;;;;;;;16.40;9.23;;;;;;;-1.50;100.00;101291.00;5009038;28;20062;-67
2022/11/20 01:36:46;;;;;;;14.35;8.75;;;;;;;-1.54;100.00;101294.59;5010988;28;20049;-67
2022/11/20 01:39:15;;;;;;;16.00;9.35;;;;;;;-1.48;100.00;101289.22;5015817;28;20053;-67
2022/11/20 01:44:53;;;;;;;15.23;9.10;;;;;;;-1.43;100.00;101287.28;5011482;28;20214;-68
2022/11/20 01:47:37;;;;;;;15.60;9.10;;;;;;;-1.44;100.00;101285.63;5017942;28;20053;-67
2022/11/20 01:50:11;;;;;;;16.33;9.38;;;;;;;-1.44;100.00;101283.06;5000027;28;20050;-67
2022/11/20 01:52:42;;;;;;;15.57;9.50;;;;;;;-1.40;100.00;101282.03;5000867;28;20064;-68
2022/11/20 01:55:14;;;;;;;16.27;8.70;;;;;;;-1.44;100.00;101278.75;5016490;28;20055;-67
2022/11/20 01:57:41;;;;;;;14.43;9.20;;;;;;;-1.47;100.00;101281.44;5001215;28;20108;-67
2022/11/20 02:00:16;;;;;;;16.42;9.13;;;;;;;-1.48;100.00;101290.03;5020536;28;20058;-67
2022/11/20 02:02:48;;;;;;;17.45;9.18;;;;;;;-1.52;100.00;101285.91;5007589;28;20360;-67
2022/11/20 02:05:32;;;;;;;15.73;8.65;;;;;;;-1.45;100.00;101291.66;5002667;28;20042;-67
2022/11/20 02:07:59;;;;;;;14.60;8.35;;;;;;;-1.50;100.00;101289.25;5014276;28;20072;-67
2022/11/20 02:10:27;;;;;;;15.73;8.77;;;;;;;-1.47;100.00;101291.75;5018532;28;20053;-67
2022/11/20 02:15:40;;;;;;;15.27;8.30;;;;;;;-1.55;100.00;101287.75;5019590;28;20053;-68
2022/11/20 02:18:07;;;;;;;16.40;9.10;;;;;;;-1.61;100.00;101283.66;5009742;28;20524;-68
2022/11/20 02:20:34;;;;;;;15.93;9.07;;;;;;;-1.64;100.00;101287.22;5015549;28;20104;-67
2022/11/20 02:23:16;;;;;;;15.60;9.05;;;;;;;-1.61;100.00;101283.66;5009343;28;20652;-67
2022/11/20 02:25:44;;;;;;;16.55;8.88;;;;;;;-1.65;100.00;101284.69;4999567;28;20490;-67
2022/11/20 02:28:11;;;;;;;14.43;8.88;;;;;;;-1.70;100.00;101284.03;5024668;28;20049;-67
2022/11/20 02:30:37;;;;;;;14.90;8.00;;;;;;;-1.73;100.00;101279.00;5015741;28;20139;-67
2022/11/20 02:33:04;;;;;;;15.20;8.93;;;;;;;-1.74;100.00;101267.03;5020242;28;20041;-68
2022/11/20 02:35:30;;;;;;;15.90;8.60;;;;;;;-1.78;100.00;101271.44;5013663;28;20041;-67
2022/11/20 02:38:00;;;;;;;14.68;8.52;;;;;;;-1.82;100.00;101262.19;5021101;28;20512;-68
2022/11/20 02:40:27;;;;;;;13.75;7.97;;;;;;;-1.87;100.00;101271.78;5014670;28;20053;-67
2022/11/20 02:42:55;;;;;;;14.73;8.30;;;;;;;-1.83;100.00;101274.16;5016569;28;20056;-67
2022/11/20 02:45:22;;;;;;;13.68;7.88;;;;;;;-1.87;100.00;101269.22;5011300;28;20591;-67
2022/11/20 02:47:49;;;;;;;15.88;9.25;;;;;;;-1.93;100.00;101265.13;5013705;28;20508;-67
2022/11/20 02:50:15;;;;;;;17.45;9.55;;;;;;;-1.97;100.00;101268.69;5017824;28;20072;-67
2022/11/20 02:52:42;;;;;;;13.95;7.80;;;;;;;-1.95;100.00;101266.91;5021838;28;20597;-67
2022/11/20 02:55:09;;;;;;;15.55;8.95;;;;;;;-1.94;100.00;101266.03;5016734;28;20045;-67
2022/11/20 02:57:35;;;;;;;15.65;8.95;;;;;;;-1.90;100.00;101262.44;5012977;28;20690;-67
2022/11/20 03:00:04;;;;;;;13.90;8.65;;;;;;;-1.86;100.00;101261.44;5005878;28;20049;-67
2022/11/20 03:02:31;;;;;;;14.02;7.88;;;;;;;-1.94;100.00;101244.59;5022105;28;20068;-67
2022/11/20 03:04:58;;;;;;;14.57;8.55;;;;;;;-1.91;100.00;101259.94;5013276;28;20208;-67
2022/11/20 03:07:24;;;;;;;14.43;8.20;;;;;;;-1.96;100.00;101254.09;5016684;28;20096;-67
2022/11/20 03:09:51;;;;;;;18.42;8.32;;;;;;;-1.97;100.00;101250.69;5017850;28;20489;-68
2022/11/20 03:12:17;;;;;;;14.43;9.02;;;;;;;-1.94;100.00;101260.03;5005482;28;20100;-68
2022/11/20 03:14:44;;;;;;;13.27;7.38;;;;;;;-2.05;100.00;101247.56;5016859;28;20045;-68
2022/11/20 03:17:17;;;;;;;13.52;8.25;;;;;;;-2.02;100.00;101243.16;5004384;28;20049;-68
2022/11/20 03:19:43;;;;;;;12.98;8.05;;;;;;;-2.07;100.00;101241.66;5020597;28;20553;-67
2022/11/20 03:22:09;;;;;;;13.23;7.80;;;;;;;-2.11;100.00;101237.50;5009972;28;20061;-68
2022/11/20 03:24:36;;;;;;;16.83;8.15;;;;;;;-2.11;100.00;101243.47;4997954;28;20058;-68
2022/11/20 03:27:02;;;;;;;15.23;8.32;;;;;;;-2.08;100.00;101239.97;5009893;28;20272;-68
2022/11/20 03:29:28;;;;;;;13.07;7.70;;;;;;;-2.12;100.00;101233.25;5003992;28;20056;-67
2022/11/20 03:31:55;;;;;;;14.18;7.90;;;;;;;-2.13;100.00;101232.41;5020341;28;20053;-67
2022/11/20 03:34:21;;;;;;;14.90;8.18;;;;;;;-2.17;100.00;101223.16;5006981;28;20089;-67
2022/11/20 03:36:48;;;;;;;14.25;8.18;;;;;;;-2.20;100.00;101231.78;5024300;28;20061;-68
2022/11/20 03:39:14;;;;;;;13.75;8.00;;;;;;;-2.21;100.00;101227.56;4999879;28;20580;-67
2022/11/20 03:41:42;;;;;;;14.43;8.52;;;;;;;-2.15;100.00;101233.38;5007330;28;20050;-68
2022/11/20 03:44:10;;;;;;;16.48;8.73;;;;;;;-2.13;100.00;101241.88;5018679;28;20053;-67
2022/11/20 03:46:37;;;;;;;18.23;8.05;;;;;;;-2.16;100.00;101245.38;5015818;28;20072;-67
2022/11/20 03:49:04;;;;;;;15.07;9.15;;;;;;;-2.13;100.00;101241.88;5017226;28;20054;-68
2022/11/20 03:51:33;;;;;;;15.52;8.40;;;;;;;-2.09;100.00;101239.13;5017345;28;20115;-67
2022/11/20 03:54:03;;;;;;;13.93;8.38;;;;;;;-2.13;100.00;101218.75;5009298;28;20054;-68
2022/11/20 03:56:32;;;;;;;15.25;9.05;;;;;;;-2.12;100.00;101228.13;5014585;28;20085;-67
2022/11/20 03:58:58;;;;;;;18.52;9.32;;;;;;;-2.18;100.00;101224.03;5010683;28;20053;-67
2022/11/20 04:01:27;;;;;;;15.02;8.63;;;;;;;-2.16;100.00;101223.97;5019248;28;20603;-67
2022/11/20 04:03:56;;;;;;;13.25;8.13;;;;;;;-2.18;100.00;101221.44;5019885;28;20050;-67
2022/11/20 04:06:30;;;;;;;13.27;7.72;;;;;;;-2.20;100.00;101224.06;5022175;28;20045;-67
2022/11/20 04:08:57;;;;;;;15.07;7.78;;;;;;;-2.22;100.00;101228.44;5004690;28;20046;-67
2022/11/20 04:11:28;;;;;;;14.30;7.93;;;;;;;-2.24;100.00;101221.69;5008685;28;20064;-67
2022/11/20 04:14:00;;;;;;;16.45;8.70;;;;;;;-2.29;100.00;101213.31;4999439;28;20534;-67
2022/11/20 04:16:30;;;;;;;12.88;7.25;;;;;;;-2.35;100.00;101222.06;5015802;28;20053;-67
2022/11/20 04:18:58;;;;;;;13.02;7.68;;;;;;;-2.36;100.00;101224.69;5018336;28;20398;-67
2022/11/20 04:21:25;;;;;;;14.90;8.10;;;;;;;-2.36;100.00;101211.84;5014499;28;20045;-67
2022/11/20 04:23:52;;;;;;;13.07;8.68;;;;;;;-2.43;100.00;101211.19;5006023;28;20045;-67
2022/11/20 04:26:20;;;;;;;15.48;8.02;;;;;;;-2.38;100.00;101217.84;5023652;28;20053;-67
2022/11/20 04:28:47;;;;;;;14.20;8.87;;;;;;;-2.39;100.00;101218.75;5020470;28;20329;-67
2022/11/20 04:31:16;;;;;;;17.77;9.23;;;;;;;-2.36;100.00;101229.81;5023093;28;20296;-67
2022/11/20 04:33:44;;;;;;;14.43;8.98;;;;;;;-2.38;100.00;101217.03;5019042;28;20559;-67
2022/11/20 04:36:19;;;;;;;14.57;7.88;;;;;;;-2.46;100.00;101219.84;5012750;28;20587;-67
2022/11/20 04:38:46;;;;;;;14.52;8.30;;;;;;;-2.46;100.00;101216.47;4998738;28;20747;-67
2022/11/20 04:41:20;;;;;;;14.98;8.77;;;;;;;-2.45;100.00;101210.41;5006600;28;20478;-67
2022/11/20 04:43:51;;;;;;;16.40;7.93;;;;;;;-2.48;100.00;101215.69;5018866;28;20482;-67
2022/11/20 04:46:19;;;;;;;13.40;7.97;;;;;;;-2.46;100.00;101214.72;4995417;28;20041;-68
2022/11/20 04:48:47;;;;;;;14.18;8.27;;;;;;;-2.47;100.00;101217.34;5004507;28;20065;-68
2022/11/20 04:51:13;;;;;;;14.00;8.48;;;;;;;-2.51;100.00;101218.34;5011180;28;20501;-67
2022/11/20 04:53:40;;;;;;;13.75;8.35;;;;;;;-2.51;100.00;101208.06;5020126;28;20061;-67
2022/11/20 04:56:08;;;;;;;13.25;7.80;;;;;;;-2.51;100.00;101211.50;5021708;28;20099;-67
2022/11/20 04:58:34;;;;;;;12.63;8.23;;;;;;;-2.54;100.00;101210.75;5017350;28;20570;-67
2022/11/20 05:01:03;;;;;;;16.55;8.55;;;;;;;-2.52;100.00;101207.22;4989810;28;20050;-67
2022/11/20 05:03:30;;;;;;;17.25;8.73;;;;;;;-2.57;100.00;101198.84;5022894;28;20116;-67
2022/11/20 05:06:01;;;;;;;14.20;8.38;;;;;;;-2.54;100.00;101201.31;5004283;28;20854;-67
2022/11/20 05:08:28;;;;;;;14.05;8.38;;;;;;;-2.55;100.00;101193.66;5011583;28;20057;-67
2022/11/20 05:11:03;;;;;;;16.73;8.60;;;;;;;-2.58;100.00;101187.72;5013762;28;20065;-67
2022/11/20 05:13:29;;;;;;;15.02;8.38;;;;;;;-2.60;100.00;101186.94;5013419;28;20059;-67
2022/11/20 05:16:01;;;;;;;15.75;9.13;;;;;;;-2.60;100.00;101184.38;5022539;28;20085;-67
2022/11/20 05:18:28;;;;;;;15.30;8.57;;;;;;;-2.66;100.00;101187.16;5012041;28;20133;-67
2022/11/20 05:20:58;;;;;;;13.27;8.10;;;;;;;-2.64;100.00;101184.56;5022091;28;20053;-67
2022/11/20 05:23:25;;;;;;;16.80;8.68;;;;;;;-2.71;100.00;101178.75;5028383;28;20102;-67
2022/11/20 05:25:54;;;;;;;15.18;8.30;;;;;;;-2.71;100.00;101173.63;5017777;28;20058;-67
2022/11/20 05:28:26;;;;;;;12.50;8.10;;;;;;;-2.74;100.00;101171.19;5022556;28;20050;-67
2022/11/20 05:30:52;;;;;;;13.10;7.85;;;;;;;-2.74;100.00;101167.75;5012660;28;20053;-67
2022/11/20 05:33:19;;;;;;;13.18;8.00;;;;;;;-2.81;100.00;101175.66;5012639;28;20049;-67
2022/11/20 05:35:45;;;;;;;15.43;7.55;;;;;;;-2.82;100.00;101188.59;5003430;28;20053;-67
2022/11/20 05:38:12;;;;;;;15.00;9.15;;;;;;;-2.87;100.00;101180.19;5024878;28;20060;-67
2022/11/20 05:40:38;;;;;;;15.93;8.73;;;;;;;-2.91;100.00;101176.03;5023270;28;20049;-68
2022/11/20 05:43:05;;;;;;;14.48;8.93;;;;;;;-2.91;100.00;101174.31;5026130;28;20799;-68
2022/11/20 05:45:31;;;;;;;18.17;9.07;;;;;;;-2.92;100.00;101167.50;5018635;28;20060;-67
2022/11/20 05:48:02;;;;;;;15.23;8.52;;;;;;;-2.88;100.00;101166.53;5014287;28;20417;-68
2022/11/20 05:50:28;;;;;;;16.67;7.90;;;;;;;-2.90;100.00;101164.88;5020553;28;20053;-66
2022/11/20 05:52:57;;;;;;;14.07;8.32;;;;;;;-2.89;100.00;101167.41;5015789;28;20049;-65
2022/11/20 05:55:23;;;;;;;15.95;9.52;;;;;;;-2.89;100.00;101167.41;5017848;28;20053;-65
2022/11/20 05:57:50;;;;;;;15.88;9.48;;;;;;;-2.89;100.00;101169.13;5025272;28;20053;-66
2022/11/20 06:00:17;;;;;;;15.20;9.02;;;;;;;-2.94;100.00;101174.44;5005295;28;20070;-68
2022/11/20 06:02:43;;;;;;;17.10;9.45;;;;;;;-2.92;100.00;101169.22;5017707;28;20136;-68
2022/11/20 06:05:10;;;;;;;14.73;8.50;;;;;;;-2.94;100.00;101171.00;5006779;28;20061;-67
2022/11/20 06:07:36;;;;;;;16.05;8.93;;;;;;;-2.94;100.00;101171.88;5017386;28;20099;-67
2022/11/20 06:10:03;;;;;;;16.20;9.50;;;;;;;-2.89;100.00;101177.66;5008658;28;20107;-67
2022/11/20 06:12:31;;;;;;;16.95;9.27;;;;;;;-2.87;100.00;101173.31;5010521;28;20498;-67
2022/11/20 06:14:58;;;;;;;17.35;10.45;;;;;;;-2.90;100.00;101173.44;5010902;28;20752;-67
2022/11/20 06:17:24;;;;;;;16.27;9.13;;;;;;;-2.88;100.00;101186.19;5017603;28;20145;-67
2022/11/20 06:19:50;;;;;;;17.13;9.35;;;;;;;-2.85;100.00;101193.81;5021672;28;20404;-67
2022/11/20 06:22:17;;;;;;;16.13;9.23;;;;;;;-2.86;100.00;101195.53;5018066;28;20057;-68
2022/11/20 06:24:43;;;;;;;15.07;9.27;;;;;;;-2.88;100.00;101194.75;5017947;28;20045;-67
2022/11/20 06:27:10;;;;;;;15.63;9.23;;;;;;;-2.94;100.00;101201.81;5015730;28;20567;-67
2022/11/20 06:29:36;;;;;;;15.10;9.20;;;;;;;-2.88;100.00;101201.59;5004002;28;20081;-67
2022/11/20 06:32:02;;;;;;;16.17;9.18;;;;;;;-2.84;100.00;101206.59;5014362;28;20497;-67
2022/11/20 06:34:29;;;;;;;16.52;9.63;;;;;;;-2.86;100.00;101200.69;5016479;28;20049;-67
2022/11/20 06:36:55;;;;;;;16.50;9.35;;;;;;;-2.87;100.00;101206.69;5017571;28;20553;-68
2022/11/20 06:39:22;;;;;;;17.77;9.15;;;;;;;-2.90;100.00;101196.53;5009019;28;20049;-67
2022/11/20 06:41:49;;;;;;;16.75;9.75;;;;;;;-2.84;100.00;101204.03;5006542;28;20053;-68
2022/11/20 06:44:22;;;;;;;15.85;9.35;;;;;;;-2.88;100.00;101201.59;5010996;28;20127;-67
2022/11/20 06:46:48;;;;;;;17.25;10.00;;;;;;;-2.90;100.00;101203.38;5002430;28;20461;-67
2022/11/20 06:49:15;;;;;;;17.05;9.98;;;;;;;-2.89;100.00;101210.22;5021426;28;20049;-67
2022/11/20 06:51:41;;;;;;;16.85;9.38;;;;;;;-2.92;100.00;101207.72;4996556;28;20053;-67
2022/11/20 06:54:08;;;;;;;18.17;8.82;;;;;;;-2.95;100.00;101211.25;5007143;28;20058;-68
2022/11/20 06:56:34;;;;;;;18.13;9.75;;;;;;;-2.95;100.00;101208.69;5009518;28;20052;-68
2022/11/20 06:59:05;;;;;;;16.15;9.48;;;;;;;-2.93;100.00;101206.06;5006190;28;20052;-67
2022/11/20 07:01:32;;;;;;;14.30;8.90;;;;;;;-2.92;100.00;101210.28;5014463;28;20058;-68
2022/11/20 07:03:58;;;;;;;18.27;9.88;;;;;;;-2.96;100.00;101204.41;5016353;28;20505;-68
2022/11/20 07:06:24;;;;;;;14.57;9.80;;;;;;;-2.95;100.00;101212.97;5011569;28;20109;-68
2022/11/20 07:08:52;;;;;;;17.58;9.25;;;;;;;-2.95;100.00;101206.09;5017364;28;20061;-68
2022/11/20 07:11:18;;;;;;;16.75;9.30;;;;;;;-2.96;100.00;101206.97;5015783;28;20133;-68
2022/11/20 07:13:45;;;;;;;15.05;9.07;;;;;;;-2.98;100.00;101206.19;5009632;28;20501;-68
2022/11/20 07:16:11;;;;;;;14.63;9.40;;;;;;;-3.00;100.00;101208.84;5009338;28;20060;-67
2022/11/20 07:18:38;;;;;;;20.40;9.93;;;;;;;-2.99;100.00;101209.66;5017876;28;20517;-67
2022/11/20 07:21:07;;;;;;;14.75;9.15;;;;;;;-3.00;100.00;101208.84;5021649;28;20693;-67
2022/11/20 07:23:34;;;;;;;15.68;9.73;;;;;;;-3.03;100.00;101197.81;5021569;28;20064;-68
2022/11/20 07:26:08;;;;;;;15.82;9.05;;;;;;;-2.92;100.00;101200.88;5010613;28;20584;-68
2022/11/20 07:28:35;;;;;;;15.52;9.70;;;;;;;-2.93;100.00;101193.22;5012135;28;20312;-68
2022/11/20 07:31:02;;;;;;;18.40;10.02;;;;;;;-2.91;100.00;101189.72;5007622;28;20057;-68
2022/11/20 07:33:28;;;;;;;18.35;9.77;;;;;;;-3.00;100.00;101184.88;5018248;28;20066;-68
2022/11/20 07:35:55;;;;;;;19.17;10.07;;;;;;;-2.95;100.00;101183.00;5017607;28;20053;-68
2022/11/20 07:38:21;;;;;;;14.63;9.70;;;;;;;-2.96;100.00;101189.00;5016578;28;20056;-68
2022/11/20 07:40:48;;;;;;;15.90;9.60;;;;;;;-2.92;100.00;101185.50;5001037;28;20095;-68
2022/11/20 07:43:15;;;;;;;17.83;9.95;;;;;;;-2.90;100.00;101181.13;5009166;28;20046;-68
2022/11/20 07:45:41;;;;;;;17.85;9.98;;;;;;;-2.88;100.00;101173.38;5012759;28;20140;-68
2022/11/20 07:48:07;;;;;;;20.95;10.77;;;;;;;-2.87;100.00;101164.78;5019904;28;20076;-68
2022/11/20 07:50:34;;;;;;;16.13;9.40;;;;;;;-2.85;100.00;101161.25;5008546;28;20506;-68
2022/11/20 07:53:04;;;;;;;19.45;10.85;;;;;;;-2.81;100.00;101179.97;5028452;28;20072;-69
2022/11/20 07:55:32;;;;;;;19.92;10.77;;;;;;;-2.76;100.00;101175.53;5013926;28;20516;-68
2022/11/20 07:57:59;;;;;;;19.08;11.35;;;;;;;-2.75;100.00;101171.22;5019617;28;20058;-68
2022/11/20 08:00:26;;;;;;;17.65;10.82;;;;;;;-2.70;100.00;101172.75;5010370;28;21364;-68
2022/11/20 08:02:53;;;;;;;22.88;11.75;;;;;;;-2.64;100.00;101175.09;5018153;28;20084;-68
2022/11/20 08:05:20;;;;;;;20.67;11.93;;;;;;;-2.58;100.00;101169.75;5023533;28;20091;-68
2022/11/20 08:07:46;;;;;;;24.88;11.88;;;;;;;-2.56;100.00;101179.97;5022035;28;20049;-68
2022/11/20 08:10:15;;;;;;;21.30;11.75;;;;;;;-2.49;100.00;101184.03;5023173;28;20049;-68
2022/11/20 08:15:32;;;;;;;20.73;11.77;;;;;;;-2.39;100.00;101185.38;5019833;28;20065;-67
2022/11/20 08:18:03;;;;;;;19.40;11.48;;;;;;;-2.27;100.00;101194.38;5012425;28;20056;-67
2022/11/20 08:20:49;;;;;;;20.92;11.65;;;;;;;-2.23;100.00;101185.66;5013717;28;20053;-67
2022/11/20 08:23:16;;;;;;;22.73;12.18;;;;;;;-2.16;100.00;101193.97;5014281;28;20050;-67
2022/11/20 08:25:42;;;;;;;19.75;11.85;;;;;;;-2.12;100.00;101192.13;5006241;28;20045;-67
2022/11/20 08:28:09;;;;;;;22.40;13.75;;;;;;;-2.03;100.00;101190.06;5026999;28;20092;-67
2022/11/20 08:30:45;;;;;;;25.17;12.57;;;;;;;-1.94;100.00;101190.59;5022404;28;20053;-67
2022/11/20 08:33:12;;;;;;;24.50;12.68;;;;;;;-1.88;100.00;101187.81;5003110;28;20100;-67
2022/11/20 08:35:38;;;;;;;21.65;12.63;;;;;;;-1.83;100.00;101179.03;4998686;28;20052;-67
2022/11/20 08:38:05;;;;;;;19.55;11.98;;;;;;;-1.71;100.00;101176.88;5016941;28;20049;-68
2022/11/20 08:40:32;;;;;;;21.95;12.82;;;;;;;-1.66;100.00;101180.97;5017886;28;20095;-67
2022/11/20 08:42:59;;;;;;;22.13;12.50;;;;;;;-1.59;100.00;101178.97;4999031;28;20131;-67
2022/11/20 08:45:25;;;;;;;23.08;12.77;;;;;;;-1.61;100.00;101173.91;5020243;28;20061;-67
2022/11/20 08:48:02;;;;;;;19.92;12.18;;;;;;;-1.46;100.00;101175.03;5013905;28;20060;-68
2022/11/20 08:50:31;;;;;;;24.15;12.70;;;;;;;-1.41;100.00;101180.00;5023681;28;20088;-68
2022/11/20 08:53:05;;;;;;;22.25;12.73;;;;;;;-1.31;100.00;101170.19;5003681;28;20054;-68
2022/11/20 08:55:31;;;;;;;23.30;13.32;;;;;;;-1.27;100.00;101157.13;5028856;28;20061;-67
2022/11/20 08:57:58;;;;;;;22.70;13.40;;;;;;;-1.21;100.00;101159.44;5027285;28;20044;-67
2022/11/20 09:00:24;;;;;;;21.73;13.00;;;;;;;-1.14;100.00;101165.16;5013279;28;20620;-67
2022/11/20 09:02:52;;;;;;;20.10;13.05;;;;;;;-1.05;100.00;101164.81;5020086;28;20690;-67
2022/11/20 09:05:18;;;;;;;22.88;13.25;;;;;;;-1.02;100.00;101161.25;5012203;28;20755;-67
2022/11/20 09:07:44;;;;;;;24.63;13.57;;;;;;;-0.90;100.00;101157.31;5015331;28;20045;-67
2022/11/20 09:10:11;;;;;;;27.48;14.68;;;;;;;-0.73;100.00;101151.47;4993465;28;20054;-68
2022/11/20 09:12:54;;;;;;;24.60;13.80;;;;;;;-0.58;100.00;101140.50;5016185;28;20049;-67
2022/11/20 09:15:22;;;;;;;23.50;12.68;;;;;;;-0.56;100.00;101138.69;5024018;28;20751;-68
2022/11/20 09:17:56;;;;;;;24.30;13.95;;;;;;;-0.37;100.00;101135.31;5019316;28;20521;-68
2022/11/20 09:20:23;;;;;;;22.90;13.77;;;;;;;-0.40;100.00;101131.94;5016627;28;20050;-68
2022/11/20 09:22:50;;;;;;;25.88;14.35;;;;;;;-0.30;100.00;101140.13;5009049;28;20084;-68
2022/11/20 09:25:17;;;;;;;27.17;14.10;;;;;;;-0.40;100.00;101131.13;5022665;28;20071;-68
2022/11/20 09:27:45;;;;;;;21.95;12.95;;;;;;;-0.32;100.00;101126.47;5027251;28;20045;-68
2022/11/20 09:30:13;;;;;;;25.80;14.68;;;;;;;-0.18;100.00;101125.00;5020271;28;20136;-67
2022/11/20 09:32:40;;;;;;;24.30;14.40;;;;;;;-0.18;100.00;101131.00;5024802;28;20060;-67
2022/11/20 09:35:07;;;;;;;27.85;14.57;;;;;;;-0.14;100.00;101126.53;5013318;28;20053;-67
2022/11/20 09:37:33;;;;;;;26.20;14.60;;;;;;;-0.10;100.00;101126.34;5006845;28;20050;-67
2022/11/20 09:40:00;;;;;;;22.58;14.15;;;;;;;-0.03;100.00;101121.72;5013207;28;20053;-67
2022/11/20 09:42:37;;;;;;;26.45;14.80;;;;;;;0.13;100.00;101122.69;5003304;28;20069;-68
2022/11/20 09:45:18;;;;;;;21.67;12.30;;;;;;;0.20;100.00;101120.66;5015328;28;20769;-67
2022/11/20 09:48:15;;;;;;;23.63;15.02;;;;;;;0.28;100.00;101131.44;5013125;28;20041;-68
2022/11/20 09:51:30;;;;;;;22.48;14.60;;;;;;;0.37;100.00;101122.41;5013291;28;20108;-67
2022/11/20 09:54:22;;;;;;;24.60;14.73;;;;;;;0.39;100.00;101118.88;5005946;28;20089;-67
2022/11/20 09:56:59;;;;;;;25.70;15.05;;;;;;;0.53;100.00;101122.50;4997929;28;20049;-68
2022/11/20 09:59:33;;;;;;;24.98;15.35;;;;;;;0.54;100.00;101122.44;4996161;28;20075;-68
2022/11/20 10:02:02;;;;;;;26.23;14.45;;;;;;;0.68;100.00;101119.19;5014117;28;20056;-68
2022/11/20 10:04:31;;;;;;;;;;;;;;;0.79;100.00;101111.75;5008672;28;20053;-68
2022/11/20 10:07:24;;;;;;;25.55;15.48;;;;;;;0.85;100.00;101097.72;5014526;28;19936;-68
2022/11/20 10:09:59;;;;;;;36.55;15.52;;;;;;;0.91;100.00;101099.16;5007140;28;20041;-68
2022/11/20 10:13:00;;;;;;;21.45;14.35;;;;;;;1.02;100.00;101101.19;5022837;28;20061;-68
2022/11/20 10:15:38;;;;;;;22.90;15.27;;;;;;;1.07;100.00;101088.88;5004662;28;20104;-68
2022/11/20 10:18:37;;;;;;;23.83;15.82;;;;;;;1.07;100.00;101088.88;5014490;28;20049;-68
2022/11/20 10:21:10;;;;;;;;;;;;;;;1.21;100.00;101083.00;5011384;28;20065;-68
2022/11/20 10:24:14;;;;;;;25.48;14.60;;;;;;;1.32;100.00;101088.44;5024559;28;20729;-68
2022/11/20 10:26:54;;;;;;;25.88;14.65;;;;;;;1.36;100.00;101079.59;5014189;28;20413;-68
2022/11/20 10:29:34;;;;;;;23.70;15.27;;;;;;;1.48;100.00;101068.59;5016410;28;20064;-67
2022/11/20 10:32:04;;;;;;;21.38;14.40;;;;;;;1.53;100.00;101056.28;5004497;28;20057;-68
2022/11/20 10:34:33;;;;;;;26.85;16.85;;;;;;;1.56;100.00;101057.88;5020324;28;20160;-68
2022/11/20 10:37:11;;;;;;;29.23;17.30;;;;;;;1.64;100.00;101060.03;5027593;28;20049;-68
2022/11/20 10:39:49;;;;;;;24.25;15.25;;;;;;;1.70;100.00;101062.28;5010246;28;20080;-68
2022/11/20 10:42:28;;;;;;;27.10;16.27;;;;;;;1.84;100.00;101058.94;5016734;28;20091;-67
2022/11/20 10:45:11;;;;;;;29.30;15.35;;;;;;;1.81;100.00;101062.53;4995043;28;20642;-67
2022/11/20 10:47:37;;;;;;;24.58;15.40;;;;;;;1.69;100.00;101058.03;5004430;28;20103;-68
2022/11/20 10:50:09;;;;;;;25.23;14.73;;;;;;;1.82;100.00;101050.44;5017539;28;20053;-68
2022/11/20 10:53:05;;;;;;;23.70;15.38;;;;;;;1.78;100.00;101053.22;5018104;28;20062;-68
2022/11/20 10:55:46;;;;;;;24.60;15.38;;;;;;;1.74;100.00;101040.50;4997232;28;20514;-67
2022/11/20 10:58:35;;;;;;;25.65;16.20;;;;;;;1.81;100.00;101039.25;5006076;28;20387;-68
2022/11/20 11:01:13;;;;;;;26.25;15.95;;;;;;;1.78;100.00;101024.75;5001969;28;20053;-68
2022/11/20 11:03:42;;;;;;;25.17;14.82;;;;;;;1.73;100.00;101034.50;5017909;28;20057;-68
2022/11/20 11:06:32;;;;;;;23.27;15.57;;;;;;;1.87;100.00;101018.22;5020919;28;20041;-68
2022/11/20 11:09:03;;;;;;;26.65;16.02;;;;;;;1.92;100.00;101016.22;5021159;28;20063;-68
2022/11/20 11:11:33;;;;;;;26.20;16.27;;;;;;;2.01;100.00;101014.88;5014420;28;20111;-68
2022/11/20 11:14:05;;;;;;;25.48;15.82;;;;;;;2.05;100.00;101002.59;5007704;28;20469;-68
2022/11/20 11:16:32;;;;;;;24.55;15.40;;;;;;;2.11;100.00;101004.81;5015373;28;20056;-68
2022/11/20 11:19:13;;;;;;;25.27;15.25;;;;;;;2.31;100.00;101003.69;5010002;28;20057;-68
2022/11/20 11:21:47;;;;;;;24.20;14.40;;;;;;;2.46;100.00;100996.78;5015122;28;20053;-68
2022/11/20 11:24:25;;;;;;;24.98;13.45;;;;;;;2.50;100.00;100993.91;5016549;28;20061;-68
2022/11/20 11:27:13;;;;;;;28.02;15.00;;;;;;;2.65;100.00;100989.59;5014181;28;20302;-68
2022/11/20 11:29:43;;;;;;;23.13;14.55;;;;;;;2.69;100.00;100980.72;5032517;28;20096;-68